sensor_id;sensor_type;location;lat;lon;timestamp;temperature;humidity
25871;DHT22;13689;48.590;7.752;2023-02-26T00:00:16;3.70;58.00
25871;DHT22;13689;48.590;7.752;2023-02-26T00:02:45;3.80;58.00
25871;DHT22;13689;48.590;7.752;2023-02-26T00:05:13;3.70;58.10
25871;DHT22;13689;48.590;7.752;2023-02-26T00:07:39;3.70;58.10
25871;DHT22;13689;48.590;7.752;2023-02-26T00:10:07;3.60;58.20
25871;DHT22;13689;48.590;7.752;2023-02-26T00:12:35;3.60;58.30
25871;DHT22;13689;48.590;7.752;2023-02-26T00:15:01;3.60;58.30
25871;DHT22;13689;48.590;7.752;2023-02-26T00:17:51;3.60;58.30
25871;DHT22;13689;48.590;7.752;2023-02-26T00:20:20;3.60;58.10
25871;DHT22;13689;48.590;7.752;2023-02-26T00:22:46;3.50;58.10
25871;DHT22;13689;48.590;7.752;2023-02-26T00:25:11;3.40;58.40
25871;DHT22;13689;48.590;7.752;2023-02-26T00:27:38;3.40;58.40
25871;DHT22;13689;48.590;7.752;2023-02-26T00:30:06;3.50;58.50
25871;DHT22;13689;48.590;7.752;2023-02-26T00:32:32;3.60;58.30
25871;DHT22;13689;48.590;7.752;2023-02-26T00:34:58;3.50;58.20
25871;DHT22;13689;48.590;7.752;2023-02-26T00:38:03;3.50;58.20
25871;DHT22;13689;48.590;7.752;2023-02-26T00:43:24;3.40;58.30
25871;DHT22;13689;48.590;7.752;2023-02-26T00:46:17;3.40;58.30
25871;DHT22;13689;48.590;7.752;2023-02-26T00:49:10;3.40;58.40
25871;DHT22;13689;48.590;7.752;2023-02-26T00:51:57;3.50;58.40
25871;DHT22;13689;48.590;7.752;2023-02-26T00:54:30;3.40;58.30
25871;DHT22;13689;48.590;7.752;2023-02-26T00:56:57;3.40;58.60
25871;DHT22;13689;48.590;7.752;2023-02-26T00:59:24;3.40;58.60
25871;DHT22;13689;48.590;7.752;2023-02-26T01:01:50;3.40;58.40
25871;DHT22;13689;48.590;7.752;2023-02-26T01:04:18;3.40;58.50
25871;DHT22;13689;48.590;7.752;2023-02-26T01:06:50;3.30;58.60
25871;DHT22;13689;48.590;7.752;2023-02-26T01:11:48;3.10;58.90
25871;DHT22;13689;48.590;7.752;2023-02-26T01:14:14;3.00;59.10
25871;DHT22;13689;48.590;7.752;2023-02-26T01:16:47;3.00;59.30
25871;DHT22;13689;48.590;7.752;2023-02-26T01:19:43;3.00;59.40
25871;DHT22;13689;48.590;7.752;2023-02-26T01:22:16;3.10;59.40
25871;DHT22;13689;48.590;7.752;2023-02-26T01:24:44;3.10;59.20
25871;DHT22;13689;48.590;7.752;2023-02-26T01:27:12;3.00;59.20
25871;DHT22;13689;48.590;7.752;2023-02-26T01:29:37;3.00;59.40
25871;DHT22;13689;48.590;7.752;2023-02-26T01:32:13;2.90;59.50
25871;DHT22;13689;48.590;7.752;2023-02-26T01:34:54;2.80;59.60
25871;DHT22;13689;48.590;7.752;2023-02-26T01:38:00;2.80;59.80
25871;DHT22;13689;48.590;7.752;2023-02-26T01:46:41;2.70;60.00
25871;DHT22;13689;48.590;7.752;2023-02-26T01:49:18;2.60;60.40
25871;DHT22;13689;48.590;7.752;2023-02-26T01:54:21;2.50;60.90
25871;DHT22;13689;48.590;7.752;2023-02-26T01:56:51;2.50;60.80
25871;DHT22;13689;48.590;7.752;2023-02-26T01:59:19;2.50;61.00
25871;DHT22;13689;48.590;7.752;2023-02-26T02:01:53;2.40;61.10
25871;DHT22;13689;48.590;7.752;2023-02-26T02:04:22;2.40;61.40
25871;DHT22;13689;48.590;7.752;2023-02-26T02:06:48;2.40;61.20
25871;DHT22;13689;48.590;7.752;2023-02-26T02:09:14;2.50;61.30
25871;DHT22;13689;48.590;7.752;2023-02-26T02:17:36;2.50;61.00
25871;DHT22;13689;48.590;7.752;2023-02-26T02:31:43;2.40;61.20
25871;DHT22;13689;48.590;7.752;2023-02-26T02:34:17;2.40;61.40
25871;DHT22;13689;48.590;7.752;2023-02-26T02:39:23;2.50;61.20
25871;DHT22;13689;48.590;7.752;2023-02-26T02:41:54;2.50;61.00
25871;DHT22;13689;48.590;7.752;2023-02-26T02:44:23;2.40;61.00
25871;DHT22;13689;48.590;7.752;2023-02-26T02:46:53;2.40;61.10
25871;DHT22;13689;48.590;7.752;2023-02-26T02:49:28;2.30;61.30
25871;DHT22;13689;48.590;7.752;2023-02-26T02:54:49;2.40;62.00
25871;DHT22;13689;48.590;7.752;2023-02-26T02:57:21;2.30;61.40
25871;DHT22;13689;48.590;7.752;2023-02-26T02:59:51;2.30;61.40
25871;DHT22;13689;48.590;7.752;2023-02-26T03:02:33;2.30;61.40
25871;DHT22;13689;48.590;7.752;2023-02-26T03:05:01;2.40;61.70
25871;DHT22;13689;48.590;7.752;2023-02-26T03:07:31;2.40;61.40
25871;DHT22;13689;48.590;7.752;2023-02-26T03:09:59;2.40;61.10
25871;DHT22;13689;48.590;7.752;2023-02-26T03:12:29;2.30;61.00
25871;DHT22;13689;48.590;7.752;2023-02-26T03:14:55;2.20;61.20
25871;DHT22;13689;48.590;7.752;2023-02-26T03:17:35;2.20;61.50
25871;DHT22;13689;48.590;7.752;2023-02-26T03:20:34;2.20;61.50
25871;DHT22;13689;48.590;7.752;2023-02-26T03:25:44;2.10;61.80
25871;DHT22;13689;48.590;7.752;2023-02-26T03:28:20;2.10;62.00
25871;DHT22;13689;48.590;7.752;2023-02-26T03:34:01;2.00;62.10
25871;DHT22;13689;48.590;7.752;2023-02-26T03:36:42;2.10;62.20
25871;DHT22;13689;48.590;7.752;2023-02-26T03:39:25;2.10;62.00
25871;DHT22;13689;48.590;7.752;2023-02-26T03:44:54;2.10;62.30
25871;DHT22;13689;48.590;7.752;2023-02-26T03:47:21;2.10;62.10
25871;DHT22;13689;48.590;7.752;2023-02-26T03:49:57;2.10;61.90
25871;DHT22;13689;48.590;7.752;2023-02-26T03:52:30;2.00;62.10
25871;DHT22;13689;48.590;7.752;2023-02-26T03:55:02;1.90;62.40
25871;DHT22;13689;48.590;7.752;2023-02-26T03:57:28;1.90;62.60
25871;DHT22;13689;48.590;7.752;2023-02-26T03:59:55;1.90;62.60
25871;DHT22;13689;48.590;7.752;2023-02-26T04:02:33;1.90;62.60
25871;DHT22;13689;48.590;7.752;2023-02-26T04:05:09;2.00;62.60
25871;DHT22;13689;48.590;7.752;2023-02-26T04:07:38;2.00;62.60
25871;DHT22;13689;48.590;7.752;2023-02-26T04:10:05;1.80;62.60
25871;DHT22;13689;48.590;7.752;2023-02-26T04:12:32;1.70;63.00
25871;DHT22;13689;48.590;7.752;2023-02-26T04:14:58;1.70;63.40
25871;DHT22;13689;48.590;7.752;2023-02-26T04:17:24;1.70;63.40
25871;DHT22;13689;48.590;7.752;2023-02-26T04:19:49;1.70;63.20
25871;DHT22;13689;48.590;7.752;2023-02-26T04:22:15;1.80;63.50
25871;DHT22;13689;48.590;7.752;2023-02-26T04:24:41;1.70;63.40
25871;DHT22;13689;48.590;7.752;2023-02-26T04:27:06;1.80;63.80
25871;DHT22;13689;48.590;7.752;2023-02-26T04:29:32;1.80;63.60
25871;DHT22;13689;48.590;7.752;2023-02-26T04:31:58;1.70;63.60
25871;DHT22;13689;48.590;7.752;2023-02-26T04:34:25;1.70;63.80
25871;DHT22;13689;48.590;7.752;2023-02-26T04:36:51;1.70;63.90
25871;DHT22;13689;48.590;7.752;2023-02-26T04:39:16;1.70;64.30
25871;DHT22;13689;48.590;7.752;2023-02-26T04:41:42;1.70;64.00
25871;DHT22;13689;48.590;7.752;2023-02-26T04:44:08;1.70;64.00
25871;DHT22;13689;48.590;7.752;2023-02-26T04:46:33;1.70;64.10
25871;DHT22;13689;48.590;7.752;2023-02-26T04:48:59;1.70;64.10
25871;DHT22;13689;48.590;7.752;2023-02-26T04:51:25;1.70;64.00
25871;DHT22;13689;48.590;7.752;2023-02-26T04:53:50;1.60;64.20
25871;DHT22;13689;48.590;7.752;2023-02-26T04:56:16;1.60;64.70
25871;DHT22;13689;48.590;7.752;2023-02-26T04:58:42;1.60;64.70
25871;DHT22;13689;48.590;7.752;2023-02-26T05:01:07;1.60;65.00
25871;DHT22;13689;48.590;7.752;2023-02-26T05:03:33;1.60;64.70
25871;DHT22;13689;48.590;7.752;2023-02-26T05:05:59;1.60;65.00
25871;DHT22;13689;48.590;7.752;2023-02-26T05:08:24;1.60;64.80
25871;DHT22;13689;48.590;7.752;2023-02-26T05:10:51;1.60;64.90
25871;DHT22;13689;48.590;7.752;2023-02-26T05:13:17;1.50;65.00
25871;DHT22;13689;48.590;7.752;2023-02-26T05:15:43;1.50;65.20
25871;DHT22;13689;48.590;7.752;2023-02-26T05:18:09;1.50;65.30
25871;DHT22;13689;48.590;7.752;2023-02-26T05:20:35;1.50;65.50
25871;DHT22;13689;48.590;7.752;2023-02-26T05:23:00;1.50;65.50
25871;DHT22;13689;48.590;7.752;2023-02-26T05:25:26;1.50;65.50
25871;DHT22;13689;48.590;7.752;2023-02-26T05:27:52;1.40;65.50
25871;DHT22;13689;48.590;7.752;2023-02-26T05:30:18;1.40;65.60
25871;DHT22;13689;48.590;7.752;2023-02-26T05:32:43;1.40;65.90
25871;DHT22;13689;48.590;7.752;2023-02-26T05:35:10;1.40;66.10
25871;DHT22;13689;48.590;7.752;2023-02-26T05:37:36;1.40;66.20
25871;DHT22;13689;48.590;7.752;2023-02-26T05:40:03;1.40;66.10
25871;DHT22;13689;48.590;7.752;2023-02-26T05:42:29;1.40;66.10
25871;DHT22;13689;48.590;7.752;2023-02-26T05:44:54;1.30;66.30
25871;DHT22;13689;48.590;7.752;2023-02-26T05:47:20;1.30;66.60
25871;DHT22;13689;48.590;7.752;2023-02-26T05:49:45;1.30;66.90
25871;DHT22;13689;48.590;7.752;2023-02-26T05:52:11;1.30;66.70
25871;DHT22;13689;48.590;7.752;2023-02-26T05:54:37;1.30;66.70
25871;DHT22;13689;48.590;7.752;2023-02-26T05:57:02;1.30;66.90
25871;DHT22;13689;48.590;7.752;2023-02-26T05:59:28;1.30;66.90
25871;DHT22;13689;48.590;7.752;2023-02-26T06:01:54;1.30;66.60
25871;DHT22;13689;48.590;7.752;2023-02-26T06:04:19;1.30;66.80
25871;DHT22;13689;48.590;7.752;2023-02-26T06:06:45;1.20;67.20
25871;DHT22;13689;48.590;7.752;2023-02-26T06:09:11;1.20;67.50
25871;DHT22;13689;48.590;7.752;2023-02-26T06:11:36;1.20;67.90
25871;DHT22;13689;48.590;7.752;2023-02-26T06:14:04;1.20;67.70
25871;DHT22;13689;48.590;7.752;2023-02-26T06:16:29;1.10;67.80
25871;DHT22;13689;48.590;7.752;2023-02-26T06:18:55;1.20;67.90
25871;DHT22;13689;48.590;7.752;2023-02-26T06:21:20;1.10;67.90
25871;DHT22;13689;48.590;7.752;2023-02-26T06:23:46;1.10;68.40
25871;DHT22;13689;48.590;7.752;2023-02-26T06:26:12;1.20;68.70
25871;DHT22;13689;48.590;7.752;2023-02-26T06:28:37;1.20;68.70
25871;DHT22;13689;48.590;7.752;2023-02-26T06:31:03;1.10;68.50
25871;DHT22;13689;48.590;7.752;2023-02-26T06:33:29;1.10;69.00
25871;DHT22;13689;48.590;7.752;2023-02-26T06:35:54;1.10;69.40
25871;DHT22;13689;48.590;7.752;2023-02-26T06:38:22;1.10;69.50
25871;DHT22;13689;48.590;7.752;2023-02-26T06:40:48;1.10;69.50
25871;DHT22;13689;48.590;7.752;2023-02-26T06:43:14;1.20;69.40
25871;DHT22;13689;48.590;7.752;2023-02-26T06:45:39;1.20;69.40
25871;DHT22;13689;48.590;7.752;2023-02-26T06:48:05;1.20;69.40
25871;DHT22;13689;48.590;7.752;2023-02-26T06:50:31;1.20;69.60
25871;DHT22;13689;48.590;7.752;2023-02-26T06:52:56;1.30;69.60
25871;DHT22;13689;48.590;7.752;2023-02-26T06:55:22;1.30;69.40
25871;DHT22;13689;48.590;7.752;2023-02-26T06:57:55;1.20;69.60
25871;DHT22;13689;48.590;7.752;2023-02-26T07:00:23;1.20;69.80
25871;DHT22;13689;48.590;7.752;2023-02-26T07:02:49;1.20;69.90
25871;DHT22;13689;48.590;7.752;2023-02-26T07:05:16;1.20;70.10
25871;DHT22;13689;48.590;7.752;2023-02-26T07:07:42;1.20;70.40
25871;DHT22;13689;48.590;7.752;2023-02-26T07:10:09;1.20;70.40
25871;DHT22;13689;48.590;7.752;2023-02-26T07:12:35;1.10;70.70
25871;DHT22;13689;48.590;7.752;2023-02-26T07:15:06;1.10;71.30
25871;DHT22;13689;48.590;7.752;2023-02-26T07:17:32;1.10;71.60
25871;DHT22;13689;48.590;7.752;2023-02-26T07:19:57;1.20;71.80
25871;DHT22;13689;48.590;7.752;2023-02-26T07:22:23;1.20;71.70
25871;DHT22;13689;48.590;7.752;2023-02-26T07:24:49;1.30;71.60
25871;DHT22;13689;48.590;7.752;2023-02-26T07:27:15;1.30;71.60
25871;DHT22;13689;48.590;7.752;2023-02-26T07:29:41;1.30;71.80
25871;DHT22;13689;48.590;7.752;2023-02-26T07:32:06;1.40;71.50
25871;DHT22;13689;48.590;7.752;2023-02-26T07:34:32;1.40;71.20
25871;DHT22;13689;48.590;7.752;2023-02-26T07:36:58;1.40;71.20
25871;DHT22;13689;48.590;7.752;2023-02-26T07:39:25;1.40;71.40
25871;DHT22;13689;48.590;7.752;2023-02-26T07:41:51;1.40;71.20
25871;DHT22;13689;48.590;7.752;2023-02-26T07:44:17;1.50;71.30
25871;DHT22;13689;48.590;7.752;2023-02-26T07:46:43;1.60;71.20
25871;DHT22;13689;48.590;7.752;2023-02-26T07:49:08;1.70;71.10
25871;DHT22;13689;48.590;7.752;2023-02-26T07:51:34;1.70;71.10
25871;DHT22;13689;48.590;7.752;2023-02-26T07:54:01;1.70;71.20
25871;DHT22;13689;48.590;7.752;2023-02-26T07:56:27;1.70;71.20
25871;DHT22;13689;48.590;7.752;2023-02-26T07:58:53;1.80;71.80
25871;DHT22;13689;48.590;7.752;2023-02-26T08:01:18;1.80;71.00
25871;DHT22;13689;48.590;7.752;2023-02-26T08:03:44;1.90;71.10
25871;DHT22;13689;48.590;7.752;2023-02-26T08:06:10;2.10;71.70
25871;DHT22;13689;48.590;7.752;2023-02-26T08:08:35;2.20;70.60
25871;DHT22;13689;48.590;7.752;2023-02-26T08:11:01;2.40;70.10
25871;DHT22;13689;48.590;7.752;2023-02-26T08:13:27;2.30;69.80
25871;DHT22;13689;48.590;7.752;2023-02-26T08:15:52;2.20;69.40
25871;DHT22;13689;48.590;7.752;2023-02-26T08:18:18;2.10;69.80
25871;DHT22;13689;48.590;7.752;2023-02-26T08:20:43;2.10;70.20
25871;DHT22;13689;48.590;7.752;2023-02-26T08:23:09;2.10;70.00
25871;DHT22;13689;48.590;7.752;2023-02-26T08:25:35;2.10;70.10
25871;DHT22;13689;48.590;7.752;2023-02-26T08:28:00;2.00;70.10
25871;DHT22;13689;48.590;7.752;2023-02-26T08:30:28;1.90;70.50
25871;DHT22;13689;48.590;7.752;2023-02-26T08:32:54;2.00;70.80
25871;DHT22;13689;48.590;7.752;2023-02-26T08:35:19;2.10;70.50
25871;DHT22;13689;48.590;7.752;2023-02-26T08:37:45;2.10;70.00
25871;DHT22;13689;48.590;7.752;2023-02-26T08:40:11;2.10;70.30
25871;DHT22;13689;48.590;7.752;2023-02-26T08:42:37;2.20;70.40
25871;DHT22;13689;48.590;7.752;2023-02-26T08:45:03;2.40;70.30
25871;DHT22;13689;48.590;7.752;2023-02-26T08:47:29;2.40;69.30
25871;DHT22;13689;48.590;7.752;2023-02-26T08:49:55;2.50;69.30
25871;DHT22;13689;48.590;7.752;2023-02-26T08:52:20;2.60;68.70
25871;DHT22;13689;48.590;7.752;2023-02-26T08:54:46;2.70;68.60
25871;DHT22;13689;48.590;7.752;2023-02-26T08:57:12;2.70;68.90
25871;DHT22;13689;48.590;7.752;2023-02-26T08:59:38;2.90;68.30
25871;DHT22;13689;48.590;7.752;2023-02-26T09:02:04;3.10;68.60
25871;DHT22;13689;48.590;7.752;2023-02-26T09:04:30;3.00;67.80
25871;DHT22;13689;48.590;7.752;2023-02-26T09:06:55;3.50;67.80
25871;DHT22;13689;48.590;7.752;2023-02-26T09:09:21;3.50;67.40
25871;DHT22;13689;48.590;7.752;2023-02-26T09:11:46;4.00;66.60
25871;DHT22;13689;48.590;7.752;2023-02-26T09:14:12;4.50;64.90
25871;DHT22;13689;48.590;7.752;2023-02-26T09:16:39;4.50;63.00
25871;DHT22;13689;48.590;7.752;2023-02-26T09:19:05;4.60;62.50
25871;DHT22;13689;48.590;7.752;2023-02-26T09:21:32;5.50;61.90
25871;DHT22;13689;48.590;7.752;2023-02-26T09:23:58;7.00;60.50
25871;DHT22;13689;48.590;7.752;2023-02-26T09:26:24;8.10;57.10
25871;DHT22;13689;48.590;7.752;2023-02-26T09:28:50;7.70;54.90
25871;DHT22;13689;48.590;7.752;2023-02-26T09:31:16;7.70;55.20
25871;DHT22;13689;48.590;7.752;2023-02-26T09:33:42;8.50;55.00
25871;DHT22;13689;48.590;7.752;2023-02-26T09:36:08;9.60;51.10
25871;DHT22;13689;48.590;7.752;2023-02-26T09:38:33;9.40;48.50
25871;DHT22;13689;48.590;7.752;2023-02-26T09:41:05;8.40;48.70
25871;DHT22;13689;48.590;7.752;2023-02-26T09:43:59;8.40;49.90
25871;DHT22;13689;48.590;7.752;2023-02-26T09:49:45;9.50;48.70
25871;DHT22;13689;48.590;7.752;2023-02-26T09:54:48;10.30;45.20
25871;DHT22;13689;48.590;7.752;2023-02-26T09:57:27;9.80;45.80
25871;DHT22;13689;48.590;7.752;2023-02-26T09:59:54;10.00;46.20
25871;DHT22;13689;48.590;7.752;2023-02-26T10:02:44;9.40;46.70
25871;DHT22;13689;48.590;7.752;2023-02-26T10:08:06;8.80;47.70
25871;DHT22;13689;48.590;7.752;2023-02-26T10:10:34;7.50;48.80
25871;DHT22;13689;48.590;7.752;2023-02-26T10:13:02;6.30;50.70
25871;DHT22;13689;48.590;7.752;2023-02-26T10:15:34;5.40;53.30
25871;DHT22;13689;48.590;7.752;2023-02-26T10:18:22;4.80;55.20
25871;DHT22;13689;48.590;7.752;2023-02-26T10:21:03;4.40;56.70
25871;DHT22;13689;48.590;7.752;2023-02-26T10:23:41;4.20;57.80
25871;DHT22;13689;48.590;7.752;2023-02-26T10:26:24;3.90;59.30
25871;DHT22;13689;48.590;7.752;2023-02-26T10:29:06;3.90;60.20
25871;DHT22;13689;48.590;7.752;2023-02-26T10:31:37;3.70;60.80
25871;DHT22;13689;48.590;7.752;2023-02-26T10:39:42;3.80;62.30
25871;DHT22;13689;48.590;7.752;2023-02-26T10:42:14;3.70;62.50
25871;DHT22;13689;48.590;7.752;2023-02-26T10:44:48;5.10;63.00
25871;DHT22;13689;48.590;7.752;2023-02-26T10:50:03;6.10;56.90
25871;DHT22;13689;48.590;7.752;2023-02-26T10:52:32;5.50;57.30
25871;DHT22;13689;48.590;7.752;2023-02-26T10:55:13;5.00;58.20
25871;DHT22;13689;48.590;7.752;2023-02-26T10:57:49;4.80;58.90
25871;DHT22;13689;48.590;7.752;2023-02-26T11:00:19;4.60;59.00
25871;DHT22;13689;48.590;7.752;2023-02-26T11:02:47;4.50;59.30
25871;DHT22;13689;48.590;7.752;2023-02-26T11:05:23;4.40;59.30
25871;DHT22;13689;48.590;7.752;2023-02-26T11:07:53;4.20;59.30
25871;DHT22;13689;48.590;7.752;2023-02-26T11:10:27;4.00;59.40
25871;DHT22;13689;48.590;7.752;2023-02-26T11:12:57;3.90;59.70
25871;DHT22;13689;48.590;7.752;2023-02-26T11:15:25;3.70;59.90
25871;DHT22;13689;48.590;7.752;2023-02-26T11:17:56;3.60;60.70
25871;DHT22;13689;48.590;7.752;2023-02-26T11:22:56;3.50;61.00
25871;DHT22;13689;48.590;7.752;2023-02-26T11:25:24;3.60;60.90
25871;DHT22;13689;48.590;7.752;2023-02-26T11:28:03;3.50;60.80
25871;DHT22;13689;48.590;7.752;2023-02-26T11:30:34;3.50;61.10
25871;DHT22;13689;48.590;7.752;2023-02-26T11:36:07;3.50;60.90
25871;DHT22;13689;48.590;7.752;2023-02-26T11:38:34;3.50;61.70
25871;DHT22;13689;48.590;7.752;2023-02-26T11:41:00;3.60;61.00
25871;DHT22;13689;48.590;7.752;2023-02-26T11:43:58;3.60;61.00
25871;DHT22;13689;48.590;7.752;2023-02-26T11:46:24;3.60;61.00
25871;DHT22;13689;48.590;7.752;2023-02-26T11:48:52;3.60;61.00
25871;DHT22;13689;48.590;7.752;2023-02-26T11:51:26;3.70;61.40
25871;DHT22;13689;48.590;7.752;2023-02-26T11:53:55;3.80;61.40
25871;DHT22;13689;48.590;7.752;2023-02-26T11:59:20;4.00;60.50
25871;DHT22;13689;48.590;7.752;2023-02-26T12:01:52;4.10;60.10
25871;DHT22;13689;48.590;7.752;2023-02-26T12:04:25;4.20;59.80
25871;DHT22;13689;48.590;7.752;2023-02-26T12:06:52;4.20;59.60
25871;DHT22;13689;48.590;7.752;2023-02-26T12:09:18;4.20;59.60
25871;DHT22;13689;48.590;7.752;2023-02-26T12:17:47;4.20;58.90
25871;DHT22;13689;48.590;7.752;2023-02-26T12:23:39;4.50;58.70
25871;DHT22;13689;48.590;7.752;2023-02-26T12:58:46;4.50;58.40
25871;DHT22;13689;48.590;7.752;2023-02-26T13:11:49;4.50;59.40
25871;DHT22;13689;48.590;7.752;2023-02-26T13:15:21;4.50;60.00
25871;DHT22;13689;48.590;7.752;2023-02-26T13:20:25;4.50;60.20
25871;DHT22;13689;48.590;7.752;2023-02-26T13:22:55;4.50;60.20
25871;DHT22;13689;48.590;7.752;2023-02-26T13:27:51;4.60;59.90
25871;DHT22;13689;48.590;7.752;2023-02-26T13:30:26;4.70;59.90
25871;DHT22;13689;48.590;7.752;2023-02-26T13:32:55;4.70;59.70
25871;DHT22;13689;48.590;7.752;2023-02-26T13:35:33;4.70;59.50
25871;DHT22;13689;48.590;7.752;2023-02-26T13:38:09;4.70;59.20
25871;DHT22;13689;48.590;7.752;2023-02-26T13:40:44;4.60;58.80
25871;DHT22;13689;48.590;7.752;2023-02-26T13:59:44;4.60;58.60
25871;DHT22;13689;48.590;7.752;2023-02-26T14:05:08;4.70;58.70
25871;DHT22;13689;48.590;7.752;2023-02-26T14:07:52;4.60;58.70
25871;DHT22;13689;48.590;7.752;2023-02-26T14:13:15;4.60;58.90
25871;DHT22;13689;48.590;7.752;2023-02-26T14:16:52;4.50;59.00
25871;DHT22;13689;48.590;7.752;2023-02-26T14:23:54;4.40;59.80
25871;DHT22;13689;48.590;7.752;2023-02-26T14:26:22;4.40;59.80
25871;DHT22;13689;48.590;7.752;2023-02-26T14:29:14;4.50;59.80
25871;DHT22;13689;48.590;7.752;2023-02-26T14:34:42;4.50;59.70
25871;DHT22;13689;48.590;7.752;2023-02-26T14:37:14;4.50;59.60
25871;DHT22;13689;48.590;7.752;2023-02-26T14:39:46;4.50;60.30
25871;DHT22;13689;48.590;7.752;2023-02-26T14:42:36;4.50;59.60
25871;DHT22;13689;48.590;7.752;2023-02-26T14:45:34;4.50;59.50
25871;DHT22;13689;48.590;7.752;2023-02-26T14:48:17;4.60;59.30
25871;DHT22;13689;48.590;7.752;2023-02-26T14:53:49;4.70;58.20
25871;DHT22;13689;48.590;7.752;2023-02-26T14:56:58;4.50;57.90
25871;DHT22;13689;48.590;7.752;2023-02-26T15:19:17;4.20;60.30
25871;DHT22;13689;48.590;7.752;2023-02-26T15:22:14;4.20;60.00
25871;DHT22;13689;48.590;7.752;2023-02-26T15:24:43;4.20;60.00
25871;DHT22;13689;48.590;7.752;2023-02-26T15:27:15;4.30;59.80
25871;DHT22;13689;48.590;7.752;2023-02-26T15:29:42;4.30;59.80
25871;DHT22;13689;48.590;7.752;2023-02-26T15:32:23;4.40;59.70
25871;DHT22;13689;48.590;7.752;2023-02-26T15:37:26;4.30;60.10
25871;DHT22;13689;48.590;7.752;2023-02-26T15:39:52;4.30;60.30
25871;DHT22;13689;48.590;7.752;2023-02-26T15:42:20;4.40;60.10
25871;DHT22;13689;48.590;7.752;2023-02-26T15:44:47;4.40;60.80
25871;DHT22;13689;48.590;7.752;2023-02-26T15:47:14;4.30;61.30
25871;DHT22;13689;48.590;7.752;2023-02-26T15:49:43;4.30;61.30
25871;DHT22;13689;48.590;7.752;2023-02-26T15:52:15;4.20;60.80
25871;DHT22;13689;48.590;7.752;2023-02-26T15:54:48;4.20;60.90
25871;DHT22;13689;48.590;7.752;2023-02-26T15:57:15;4.20;61.30
25871;DHT22;13689;48.590;7.752;2023-02-26T15:59:47;4.20;61.50
25871;DHT22;13689;48.590;7.752;2023-02-26T16:02:15;4.20;61.40
25871;DHT22;13689;48.590;7.752;2023-02-26T16:04:42;4.20;61.00
25871;DHT22;13689;48.590;7.752;2023-02-26T16:07:10;4.30;60.40
25871;DHT22;13689;48.590;7.752;2023-02-26T16:09:38;4.30;60.00
25871;DHT22;13689;48.590;7.752;2023-02-26T16:12:20;4.30;59.50
25871;DHT22;13689;48.590;7.752;2023-02-26T16:14:53;4.30;59.10
25871;DHT22;13689;48.590;7.752;2023-02-26T16:17:27;4.30;57.90
25871;DHT22;13689;48.590;7.752;2023-02-26T16:19:55;4.30;57.10
25871;DHT22;13689;48.590;7.752;2023-02-26T16:22:34;4.30;56.80
25871;DHT22;13689;48.590;7.752;2023-02-26T16:27:33;4.30;55.80
25871;DHT22;13689;48.590;7.752;2023-02-26T16:30:01;4.40;55.40
25871;DHT22;13689;48.590;7.752;2023-02-26T16:32:28;4.30;54.80
25871;DHT22;13689;48.590;7.752;2023-02-26T16:34:58;4.30;54.40
25871;DHT22;13689;48.590;7.752;2023-02-26T16:40:25;4.10;55.00
25871;DHT22;13689;48.590;7.752;2023-02-26T16:42:59;4.10;55.30
25871;DHT22;13689;48.590;7.752;2023-02-26T16:45:42;4.10;55.50
25871;DHT22;13689;48.590;7.752;2023-02-26T16:48:25;4.10;55.80
25871;DHT22;13689;48.590;7.752;2023-02-26T16:53:41;4.00;56.10
25871;DHT22;13689;48.590;7.752;2023-02-26T16:56:20;4.00;56.10
25871;DHT22;13689;48.590;7.752;2023-02-26T16:58:54;3.90;56.10
25871;DHT22;13689;48.590;7.752;2023-02-26T17:01:22;3.90;56.00
25871;DHT22;13689;48.590;7.752;2023-02-26T17:04:00;3.90;56.00
25871;DHT22;13689;48.590;7.752;2023-02-26T17:06:28;3.90;55.90
25871;DHT22;13689;48.590;7.752;2023-02-26T17:09:00;3.90;55.80
25871;DHT22;13689;48.590;7.752;2023-02-26T17:11:27;3.90;55.80
25871;DHT22;13689;48.590;7.752;2023-02-26T17:14:20;3.90;56.20
25871;DHT22;13689;48.590;7.752;2023-02-26T17:16:48;3.80;56.90
25871;DHT22;13689;48.590;7.752;2023-02-26T17:19:15;3.80;57.70
25871;DHT22;13689;48.590;7.752;2023-02-26T17:21:52;3.80;58.10
25871;DHT22;13689;48.590;7.752;2023-02-26T17:24:39;3.80;58.40
25871;DHT22;13689;48.590;7.752;2023-02-26T17:27:06;3.70;58.30
25871;DHT22;13689;48.590;7.752;2023-02-26T17:29:36;3.70;58.10
25871;DHT22;13689;48.590;7.752;2023-02-26T17:32:15;3.70;57.90
25871;DHT22;13689;48.590;7.752;2023-02-26T17:34:44;3.70;57.70
25871;DHT22;13689;48.590;7.752;2023-02-26T17:37:14;3.70;57.60
25871;DHT22;13689;48.590;7.752;2023-02-26T17:39:40;3.70;57.40
25871;DHT22;13689;48.590;7.752;2023-02-26T17:42:17;3.70;57.00
25871;DHT22;13689;48.590;7.752;2023-02-26T17:44:46;3.70;56.70
25871;DHT22;13689;48.590;7.752;2023-02-26T17:47:22;3.70;56.60
25871;DHT22;13689;48.590;7.752;2023-02-26T17:49:52;3.60;56.60
25871;DHT22;13689;48.590;7.752;2023-02-26T17:52:24;3.70;56.50
25871;DHT22;13689;48.590;7.752;2023-02-26T17:54:56;3.70;56.30
25871;DHT22;13689;48.590;7.752;2023-02-26T17:57:28;3.70;56.00
25871;DHT22;13689;48.590;7.752;2023-02-26T17:59:56;3.70;55.80
25871;DHT22;13689;48.590;7.752;2023-02-26T18:02:24;3.70;55.60
25871;DHT22;13689;48.590;7.752;2023-02-26T18:04:52;3.70;55.40
25871;DHT22;13689;48.590;7.752;2023-02-26T18:07:18;3.70;55.50
25871;DHT22;13689;48.590;7.752;2023-02-26T18:09:47;3.60;54.90
25871;DHT22;13689;48.590;7.752;2023-02-26T18:12:18;3.60;54.90
25871;DHT22;13689;48.590;7.752;2023-02-26T18:14:55;3.60;54.90
25871;DHT22;13689;48.590;7.752;2023-02-26T18:17:23;3.70;54.90
25871;DHT22;13689;48.590;7.752;2023-02-26T18:19:55;3.70;54.50
25871;DHT22;13689;48.590;7.752;2023-02-26T18:22:24;3.70;54.60
25871;DHT22;13689;48.590;7.752;2023-02-26T18:24:57;3.70;54.20
25871;DHT22;13689;48.590;7.752;2023-02-26T18:27:56;3.70;54.20
25871;DHT22;13689;48.590;7.752;2023-02-26T18:30:59;3.70;54.10
25871;DHT22;13689;48.590;7.752;2023-02-26T18:33:27;3.70;54.10
25871;DHT22;13689;48.590;7.752;2023-02-26T18:36:35;3.70;54.20
25871;DHT22;13689;48.590;7.752;2023-02-26T18:39:13;3.60;54.00
25871;DHT22;13689;48.590;7.752;2023-02-26T18:41:46;3.70;54.20
25871;DHT22;13689;48.590;7.752;2023-02-26T18:44:21;3.70;54.10
25871;DHT22;13689;48.590;7.752;2023-02-26T18:46:55;3.70;54.20
25871;DHT22;13689;48.590;7.752;2023-02-26T18:49:26;3.70;54.20
25871;DHT22;13689;48.590;7.752;2023-02-26T18:51:52;3.70;54.20
25871;DHT22;13689;48.590;7.752;2023-02-26T18:54:19;3.80;54.20
25871;DHT22;13689;48.590;7.752;2023-02-26T18:56:44;3.70;54.20
25871;DHT22;13689;48.590;7.752;2023-02-26T18:59:11;3.80;54.30
25871;DHT22;13689;48.590;7.752;2023-02-26T19:01:37;3.80;54.30
25871;DHT22;13689;48.590;7.752;2023-02-26T19:04:03;3.80;54.40
25871;DHT22;13689;48.590;7.752;2023-02-26T19:06:28;3.80;54.30
25871;DHT22;13689;48.590;7.752;2023-02-26T19:08:54;3.70;54.30
25871;DHT22;13689;48.590;7.752;2023-02-26T19:11:20;3.70;54.40
25871;DHT22;13689;48.590;7.752;2023-02-26T19:13:48;3.60;54.50
25871;DHT22;13689;48.590;7.752;2023-02-26T19:16:14;3.60;54.50
25871;DHT22;13689;48.590;7.752;2023-02-26T19:18:39;3.60;54.60